Time;durP1;ratioP1;P1;durP2;ratioP2;P2;SDS_P1;SDS_P2;PMS_P1;PMS_P2;Temp;Humidity;BMP_temperature;BMP_pressure;BME280_temperature;BME280_humidity;BME280_pressure;Samples;Min_cycle;Max_cycle;Signal;HPM_P1;HPM_P2
2023/09/03 00:01:48;;;;;;;7.30;6.00;;;;;;;;;;108048;293;42015;-43
2023/09/03 00:04:21;;;;;;;6.70;5.50;;;;;;;;;;108073;293;38667;-42
2023/09/03 00:06:55;;;;;;;7.50;6.00;;;;;;;;;;107996;293;45727;-42
2023/09/03 00:09:28;;;;;;;7.50;5.60;;;;;;;;;;108045;293;44234;-42
2023/09/03 00:12:01;;;;;;;7.50;6.00;;;;;;;;;;108030;293;43342;-42
2023/09/03 00:14:35;;;;;;;6.80;5.50;;;;;;;;;;108050;293;39254;-42
2023/09/03 00:17:13;;;;;;;7.20;5.80;;;;;;;;;;107939;293;46667;-42
2023/09/03 00:19:47;;;;;;;7.50;5.80;;;;;;;;;;107959;293;42800;-42
2023/09/03 00:22:20;;;;;;;7.70;5.90;;;;;;;;;;108056;293;43452;-42
2023/09/03 00:24:53;;;;;;;7.70;5.90;;;;;;;;;;108013;293;38740;-42
2023/09/03 00:27:27;;;;;;;7.10;5.90;;;;;;;;;;107960;293;45590;-43
2023/09/03 00:30:04;;;;;;;7.30;5.50;;;;;;;;;;108015;293;42912;-43
2023/09/03 00:32:37;;;;;;;8.10;6.10;;;;;;;;;;108022;293;42026;-42
2023/09/03 00:35:12;;;;;;;8.20;6.10;;;;;;;;;;108031;293;38715;-42
2023/09/03 00:37:46;;;;;;;6.60;5.70;;;;;;;;;;108060;293;46437;-43
2023/09/03 00:40:20;;;;;;;7.70;6.30;;;;;;;;;;108040;293;42887;-42
2023/09/03 00:42:53;;;;;;;8.20;6.30;;;;;;;;;;108085;293;42102;-42
2023/09/03 00:45:26;;;;;;;7.70;6.20;;;;;;;;;;108003;293;38959;-42
2023/09/03 00:47:59;;;;;;;8.60;6.30;;;;;;;;;;108030;293;46935;-42
2023/09/03 00:50:33;;;;;;;7.00;6.00;;;;;;;;;;108055;293;43896;-43
2023/09/03 00:53:10;;;;;;;7.80;6.30;;;;;;;;;;108035;293;42321;-42
2023/09/03 00:55:44;;;;;;;7.60;6.20;;;;;;;;;;108030;293;38592;-42
2023/09/03 00:58:17;;;;;;;8.00;6.60;;;;;;;;;;108003;293;46508;-42
2023/09/03 01:00:51;;;;;;;8.40;6.80;;;;;;;;;;108021;293;42809;-43
2023/09/03 01:03:26;;;;;;;8.20;6.50;;;;;;;;;;108028;293;41849;-43
2023/09/03 01:05:59;;;;;;;7.40;6.40;;;;;;;;;;108005;293;39968;-42
2023/09/03 01:08:33;;;;;;;8.50;6.70;;;;;;;;;;107929;293;46507;-44
2023/09/03 01:11:28;;;;;;;8.50;6.90;;;;;;;;;;108020;293;42994;-43
2023/09/03 01:14:17;;;;;;;8.10;6.90;;;;;;;;;;108019;293;42078;-47
2023/09/03 01:17:05;;;;;;;7.80;7.00;;;;;;;;;;107944;294;38717;-43
2023/09/03 01:20:12;;;;;;;7.90;7.00;;;;;;;;;;107943;293;39664;-44
2023/09/03 01:23:19;;;;;;;7.90;6.70;;;;;;;;;;107788;293;44281;-44
2023/09/03 01:26:17;;;;;;;7.70;6.80;;;;;;;;;;107924;293;41813;-42
2023/09/03 01:28:51;;;;;;;7.80;7.00;;;;;;;;;;108017;293;39851;-42
2023/09/03 01:31:25;;;;;;;7.80;6.70;;;;;;;;;;108129;293;39429;-42
2023/09/03 01:34:03;;;;;;;8.90;7.40;;;;;;;;;;108120;293;44001;-42
2023/09/03 01:36:37;;;;;;;8.40;7.30;;;;;;;;;;108161;293;43036;-42
2023/09/03 01:39:13;;;;;;;8.50;7.60;;;;;;;;;;107912;293;175575;-43
2023/09/03 01:41:46;;;;;;;8.50;6.90;;;;;;;;;;107938;293;192733;-42
2023/09/03 01:44:19;;;;;;;8.70;7.40;;;;;;;;;;108137;293;42811;-42
2023/09/03 01:47:02;;;;;;;8.70;7.10;;;;;;;;;;108134;293;43294;-42
2023/09/03 01:49:51;;;;;;;9.10;7.50;;;;;;;;;;108192;293;44468;-43
2023/09/03 01:52:38;;;;;;;9.40;7.20;;;;;;;;;;108098;293;39796;-44
2023/09/03 01:55:13;;;;;;;8.30;7.40;;;;;;;;;;108075;293;42848;-42
2023/09/03 01:57:51;;;;;;;8.80;7.40;;;;;;;;;;108036;293;42011;-43
2023/09/03 02:00:26;;;;;;;8.40;7.60;;;;;;;;;;108074;293;38559;-42
2023/09/03 02:03:02;;;;;;;8.10;7.30;;;;;;;;;;108066;293;39649;-43
2023/09/03 02:05:36;;;;;;;8.70;7.80;;;;;;;;;;108061;293;43014;-42
2023/09/03 02:08:09;;;;;;;8.70;7.80;;;;;;;;;;107994;293;42110;-43
2023/09/03 02:10:43;;;;;;;9.10;7.70;;;;;;;;;;108073;293;38844;-42
2023/09/03 02:13:17;;;;;;;8.30;7.40;;;;;;;;;;108054;293;39377;-42
2023/09/03 02:15:50;;;;;;;8.20;7.40;;;;;;;;;;108106;293;42821;-42
2023/09/03 02:18:24;;;;;;;8.70;7.40;;;;;;;;;;108073;293;42062;-43
2023/09/03 02:20:57;;;;;;;8.50;7.60;;;;;;;;;;108103;293;38454;-43
2023/09/03 02:23:30;;;;;;;9.00;7.90;;;;;;;;;;108084;293;39668;-43
2023/09/03 02:26:05;;;;;;;9.50;8.10;;;;;;;;;;108081;293;44047;-41
2023/09/03 02:28:40;;;;;;;8.70;7.20;;;;;;;;;;107906;293;175590;-43
2023/09/03 02:31:15;;;;;;;8.80;7.70;;;;;;;;;;108060;293;38464;-42
2023/09/03 02:33:48;;;;;;;8.50;7.60;;;;;;;;;;108068;293;39659;-42
2023/09/03 02:36:21;;;;;;;8.50;7.60;;;;;;;;;;108062;293;43526;-42
2023/09/03 02:39:05;;;;;;;8.70;7.80;;;;;;;;;;108030;293;43064;-43
2023/09/03 02:41:39;;;;;;;8.70;7.80;;;;;;;;;;108063;293;38958;-43
2023/09/03 02:44:12;;;;;;;8.90;7.60;;;;;;;;;;108094;293;40909;-42
2023/09/03 02:46:45;;;;;;;9.10;7.50;;;;;;;;;;108072;293;42922;-42
2023/09/03 02:49:20;;;;;;;8.60;7.70;;;;;;;;;;107951;293;43272;-42
2023/09/03 02:51:53;;;;;;;8.60;7.70;;;;;;;;;;108046;293;40021;-42
2023/09/03 02:54:27;;;;;;;8.50;7.70;;;;;;;;;;108085;293;39676;-42
2023/09/03 02:57:00;;;;;;;8.90;7.70;;;;;;;;;;108050;293;43922;-42
2023/09/03 02:59:33;;;;;;;8.40;7.30;;;;;;;;;;107986;293;43160;-42
2023/09/03 03:02:07;;;;;;;8.80;7.70;;;;;;;;;;108106;293;39978;-42
2023/09/03 03:04:40;;;;;;;8.50;7.20;;;;;;;;;;108088;293;39665;-41
2023/09/03 03:07:14;;;;;;;8.50;7.60;;;;;;;;;;108054;293;44972;-43
2023/09/03 03:09:52;;;;;;;8.20;7.20;;;;;;;;;;108006;293;41806;-43
2023/09/03 03:12:28;;;;;;;8.40;7.50;;;;;;;;;;108097;293;41088;-42
2023/09/03 03:15:01;;;;;;;8.80;7.70;;;;;;;;;;108066;293;40944;-43
2023/09/03 03:17:34;;;;;;;8.60;7.40;;;;;;;;;;108060;293;42768;-43
2023/09/03 03:20:10;;;;;;;8.70;7.60;;;;;;;;;;108040;293;42103;-42
2023/09/03 03:22:45;;;;;;;9.30;7.60;;;;;;;;;;108093;293;38764;-42
2023/09/03 03:25:24;;;;;;;9.10;7.60;;;;;;;;;;108014;293;42051;-42
2023/09/03 03:28:00;;;;;;;8.40;7.50;;;;;;;;;;107978;293;196905;-42
2023/09/03 03:30:33;;;;;;;9.10;7.20;;;;;;;;;;108049;293;42013;-42
2023/09/03 03:33:06;;;;;;;9.20;7.80;;;;;;;;;;108094;293;38733;-42
2023/09/03 03:35:41;;;;;;;8.70;7.80;;;;;;;;;;107900;293;175553;-43
2023/09/03 03:38:14;;;;;;;8.40;7.50;;;;;;;;;;108074;293;42852;-43
2023/09/03 03:40:47;;;;;;;9.70;7.70;;;;;;;;;;107974;293;42116;-42
2023/09/03 03:43:21;;;;;;;8.50;7.60;;;;;;;;;;108021;293;38771;-42
2023/09/03 03:45:54;;;;;;;9.10;7.70;;;;;;;;;;108029;293;39637;-43
2023/09/03 03:48:30;;;;;;;8.60;7.70;;;;;;;;;;108004;293;44897;-42
2023/09/03 03:51:06;;;;;;;8.70;7.80;;;;;;;;;;108051;293;42025;-43
2023/09/03 03:53:40;;;;;;;8.60;7.30;;;;;;;;;;108124;293;38987;-43
2023/09/03 03:56:15;;;;;;;8.60;7.70;;;;;;;;;;108112;293;39389;-43
2023/09/03 03:58:52;;;;;;;8.60;7.50;;;;;;;;;;108080;293;42859;-43
2023/09/03 04:01:26;;;;;;;8.90;7.60;;;;;;;;;;108030;293;43527;-42
2023/09/03 04:03:59;;;;;;;8.60;7.50;;;;;;;;;;108072;293;38834;-43
2023/09/03 04:06:35;;;;;;;8.30;7.50;;;;;;;;;;108011;293;39938;-43
2023/09/03 04:09:11;;;;;;;9.20;7.50;;;;;;;;;;108001;293;43237;-42
2023/09/03 04:11:47;;;;;;;9.10;8.00;;;;;;;;;;107986;293;42233;-43
2023/09/03 04:14:20;;;;;;;8.90;7.90;;;;;;;;;;108053;293;39111;-42
2023/09/03 04:16:53;;;;;;;8.90;7.20;;;;;;;;;;108040;293;39648;-42
2023/09/03 04:19:27;;;;;;;8.40;7.00;;;;;;;;;;108008;293;43047;-43
2023/09/03 04:22:01;;;;;;;8.30;7.40;;;;;;;;;;107824;293;175565;-42
2023/09/03 04:24:34;;;;;;;8.20;7.20;;;;;;;;;;108016;293;38772;-43
2023/09/03 04:27:09;;;;;;;9.20;7.50;;;;;;;;;;108052;293;39842;-42
2023/09/03 04:29:47;;;;;;;8.70;7.80;;;;;;;;;;107918;293;175574;-43
2023/09/03 04:32:20;;;;;;;8.40;7.10;;;;;;;;;;108008;293;42188;-42
2023/09/03 04:34:54;;;;;;;7.70;6.70;;;;;;;;;;108079;293;38719;-43
2023/09/03 04:37:31;;;;;;;8.10;7.30;;;;;;;;;;108068;293;39635;-42
2023/09/03 04:40:09;;;;;;;8.10;7.00;;;;;;;;;;107945;293;42835;-43
2023/09/03 04:42:42;;;;;;;8.40;7.20;;;;;;;;;;108008;293;41813;-43
2023/09/03 04:45:20;;;;;;;8.20;7.30;;;;;;;;;;108042;293;39065;-43
2023/09/03 04:47:53;;;;;;;8.10;6.90;;;;;;;;;;108049;293;39675;-43
2023/09/03 04:50:27;;;;;;;8.20;7.20;;;;;;;;;;108059;293;42875;-43
2023/09/03 04:53:01;;;;;;;9.30;7.20;;;;;;;;;;107999;293;42012;-42
2023/09/03 04:55:39;;;;;;;8.40;7.30;;;;;;;;;;107910;293;38827;-43
2023/09/03 04:58:15;;;;;;;8.40;7.40;;;;;;;;;;108020;293;39961;-42
2023/09/03 05:00:48;;;;;;;8.90;7.40;;;;;;;;;;108024;293;44948;-43
2023/09/03 05:03:21;;;;;;;8.00;7.20;;;;;;;;;;107873;293;175065;-43
2023/09/03 05:05:54;;;;;;;10.00;7.40;;;;;;;;;;108061;293;38573;-42
2023/09/03 05:08:28;;;;;;;8.10;7.20;;;;;;;;;;107778;293;326332;-42
2023/09/03 05:11:11;;;;;;;8.00;7.10;;;;;;;;;;107347;293;894206;-43
2023/09/03 05:13:44;;;;;;;8.40;7.10;;;;;;;;;;107995;293;48809;-42
2023/09/03 05:16:17;;;;;;;8.30;7.50;;;;;;;;;;108024;293;38774;-43
2023/09/03 05:18:53;;;;;;;8.20;7.30;;;;;;;;;;108006;293;39939;-42
2023/09/03 05:21:26;;;;;;;8.40;7.00;;;;;;;;;;108037;293;42990;-43
2023/09/03 05:24:03;;;;;;;8.20;7.30;;;;;;;;;;107957;293;47716;-43
2023/09/03 05:26:38;;;;;;;8.30;7.20;;;;;;;;;;107877;293;175288;-42
2023/09/03 05:29:13;;;;;;;8.20;7.10;;;;;;;;;;108069;293;39699;-43
2023/09/03 05:31:46;;;;;;;8.10;7.10;;;;;;;;;;108090;293;42937;-43
2023/09/03 05:34:20;;;;;;;9.20;8.00;;;;;;;;;;108054;293;47743;-43
2023/09/03 05:36:53;;;;;;;8.80;7.60;;;;;;;;;;108093;293;38808;-43
2023/09/03 05:39:26;;;;;;;8.50;7.10;;;;;;;;;;108075;293;39759;-43
2023/09/03 05:42:00;;;;;;;8.30;7.00;;;;;;;;;;108138;293;44153;-42
2023/09/03 05:44:35;;;;;;;8.30;7.50;;;;;;;;;;108075;293;48812;-43
2023/09/03 05:47:13;;;;;;;8.30;7.40;;;;;;;;;;107988;293;38706;-43
2023/09/03 05:49:49;;;;;;;8.30;7.40;;;;;;;;;;108169;293;39695;-43
2023/09/03 05:52:26;;;;;;;8.30;7.10;;;;;;;;;;108076;286;42568;-43
2023/09/03 05:54:59;;;;;;;8.30;7.20;;;;;;;;;;108105;293;48377;-43
2023/09/03 05:57:32;;;;;;;9.30;7.60;;;;;;;;;;108088;293;39074;-43
2023/09/03 06:00:10;;;;;;;8.00;7.20;;;;;;;;;;108118;293;39614;-43
2023/09/03 06:02:43;;;;;;;8.40;7.50;;;;;;;;;;108032;293;42784;-42
2023/09/03 06:05:17;;;;;;;8.00;7.00;;;;;;;;;;108083;293;50760;-42
2023/09/03 06:07:54;;;;;;;8.40;7.30;;;;;;;;;;107985;295;38692;-42
2023/09/03 06:10:28;;;;;;;8.00;7.20;;;;;;;;;;107974;294;39577;-42
2023/09/03 06:13:03;;;;;;;7.80;7.00;;;;;;;;;;107784;294;175630;-44
2023/09/03 06:15:36;;;;;;;8.40;7.10;;;;;;;;;;107963;295;48199;-42
2023/09/03 06:18:10;;;;;;;8.00;6.90;;;;;;;;;;107996;294;38732;-42
2023/09/03 06:20:43;;;;;;;8.00;7.10;;;;;;;;;;107319;295;892983;-42
2023/09/03 06:23:18;;;;;;;7.50;6.80;;;;;;;;;;107957;295;43042;-43
2023/09/03 06:25:52;;;;;;;8.00;7.20;;;;;;;;;;107940;295;49230;-42
2023/09/03 06:28:28;;;;;;;8.10;6.70;;;;;;;;;;107923;294;38516;-43
2023/09/03 06:31:01;;;;;;;7.60;6.80;;;;;;;;;;108012;294;39766;-43
2023/09/03 06:33:38;;;;;;;8.20;6.50;;;;;;;;;;107943;294;42512;-42
2023/09/03 06:36:12;;;;;;;7.50;6.70;;;;;;;;;;107980;295;48133;-42
2023/09/03 06:38:50;;;;;;;7.70;6.80;;;;;;;;;;108022;295;38544;-42
2023/09/03 06:41:23;;;;;;;7.80;6.60;;;;;;;;;;108009;294;39338;-42
2023/09/03 06:43:56;;;;;;;7.30;6.40;;;;;;;;;;107967;294;42784;-43
2023/09/03 06:46:32;;;;;;;8.00;7.10;;;;;;;;;;107950;295;49264;-42
2023/09/03 06:49:05;;;;;;;7.40;6.60;;;;;;;;;;107958;295;38780;-42
2023/09/03 06:51:38;;;;;;;7.60;6.70;;;;;;;;;;107946;295;39628;-42
2023/09/03 06:54:11;;;;;;;7.40;6.40;;;;;;;;;;107950;294;42886;-43
2023/09/03 06:56:45;;;;;;;8.90;6.70;;;;;;;;;;108000;294;48701;-42
2023/09/03 06:59:22;;;;;;;7.20;6.20;;;;;;;;;;107973;294;39615;-42
2023/09/03 07:02:07;;;;;;;7.70;6.10;;;;;;;;;;107951;294;40814;-43
2023/09/03 07:04:40;;;;;;;7.60;6.30;;;;;;;;;;107910;294;42828;-42
2023/09/03 07:07:13;;;;;;;7.90;5.80;;;;;;;;;;107374;293;894155;-42
2023/09/03 07:09:46;;;;;;;7.40;6.10;;;;;;;;;;108070;293;38759;-42
2023/09/03 07:12:23;;;;;;;7.60;5.90;;;;;;;;;;108069;293;39649;-42
2023/09/03 07:14:56;;;;;;;7.60;6.30;;;;;;;;;;108012;293;42872;-42
2023/09/03 07:17:31;;;;;;;7.40;6.00;;;;;;;;;;108056;293;43315;-42
2023/09/03 07:20:08;;;;;;;7.50;5.60;;;;;;;;;;108082;293;38737;-43
2023/09/03 07:22:44;;;;;;;6.60;5.60;;;;;;;;;;108053;293;39634;-43
2023/09/03 07:25:18;;;;;;;7.10;6.00;;;;;;;;;;107996;293;42521;-42
2023/09/03 07:27:51;;;;;;;6.50;5.50;;;;;;;;;;108036;293;42071;-42
2023/09/03 07:30:24;;;;;;;7.30;5.70;;;;;;;;;;108021;293;38454;-43
2023/09/03 07:33:00;;;;;;;6.40;5.50;;;;;;;;;;108034;293;40647;-42
2023/09/03 07:35:34;;;;;;;7.40;5.70;;;;;;;;;;108022;293;43871;-43
2023/09/03 07:38:08;;;;;;;7.00;5.50;;;;;;;;;;108041;293;41810;-43
2023/09/03 07:40:43;;;;;;;6.40;4.90;;;;;;;;;;108086;293;38672;-43
2023/09/03 07:43:17;;;;;;;7.30;5.70;;;;;;;;;;108050;293;39801;-43
2023/09/03 07:45:53;;;;;;;6.30;5.20;;;;;;;;;;107990;293;42524;-42
2023/09/03 07:48:28;;;;;;;7.00;5.30;;;;;;;;;;108075;293;42206;-42
2023/09/03 07:51:04;;;;;;;6.60;5.40;;;;;;;;;;108056;293;38467;-42
2023/09/03 07:53:38;;;;;;;7.10;5.20;;;;;;;;;;108065;293;40636;-42
2023/09/03 07:56:12;;;;;;;6.80;5.40;;;;;;;;;;108009;293;42711;-42
2023/09/03 07:58:47;;;;;;;6.50;5.20;;;;;;;;;;108074;293;42143;-42
2023/09/03 08:01:21;;;;;;;7.50;5.30;;;;;;;;;;108068;293;38683;-42
2023/09/03 08:03:56;;;;;;;6.20;5.10;;;;;;;;;;108094;293;40619;-42
2023/09/03 08:06:30;;;;;;;7.70;5.20;;;;;;;;;;108009;293;44135;-42
2023/09/03 08:09:06;;;;;;;6.30;4.80;;;;;;;;;;108038;293;41955;-42
2023/09/03 08:11:39;;;;;;;7.00;5.20;;;;;;;;;;108088;293;39091;-42
2023/09/03 08:14:12;;;;;;;6.80;4.90;;;;;;;;;;108014;293;39654;-42
2023/09/03 08:16:45;;;;;;;6.90;5.30;;;;;;;;;;108036;293;44178;-42
2023/09/03 08:19:19;;;;;;;7.00;4.90;;;;;;;;;;108051;293;42174;-43
2023/09/03 08:21:54;;;;;;;6.20;4.70;;;;;;;;;;108045;293;38724;-42
2023/09/03 08:24:32;;;;;;;7.30;5.00;;;;;;;;;;108042;293;39685;-42
2023/09/03 08:27:09;;;;;;;6.30;4.70;;;;;;;;;;107983;293;42879;-42
2023/09/03 08:29:43;;;;;;;6.40;4.70;;;;;;;;;;108068;293;43334;-42
2023/09/03 08:32:17;;;;;;;6.10;4.60;;;;;;;;;;108056;293;40098;-42
2023/09/03 08:34:53;;;;;;;6.20;4.50;;;;;;;;;;108021;293;41168;-43
2023/09/03 08:37:28;;;;;;;6.10;4.70;;;;;;;;;;107972;293;42602;-42
2023/09/03 08:40:03;;;;;;;7.30;4.80;;;;;;;;;;108045;293;42263;-42
2023/09/03 08:42:40;;;;;;;6.90;4.70;;;;;;;;;;108034;293;38729;-43
2023/09/03 08:45:17;;;;;;;5.70;4.50;;;;;;;;;;108038;293;39793;-44
2023/09/03 08:47:55;;;;;;;6.00;4.40;;;;;;;;;;108045;293;43860;-42
2023/09/03 08:50:29;;;;;;;6.20;4.40;;;;;;;;;;108085;293;42110;-42
2023/09/03 08:53:04;;;;;;;6.70;4.80;;;;;;;;;;108056;293;38760;-42
2023/09/03 08:55:40;;;;;;;7.20;4.20;;;;;;;;;;108105;293;39695;-42
2023/09/03 08:58:15;;;;;;;6.50;4.50;;;;;;;;;;108047;293;42863;-42
2023/09/03 09:00:49;;;;;;;6.90;4.20;;;;;;;;;;108016;293;42065;-42
2023/09/03 09:03:30;;;;;;;7.10;4.90;;;;;;;;;;108022;293;38768;-42
2023/09/03 09:06:07;;;;;;;7.00;4.60;;;;;;;;;;108048;293;39960;-42
2023/09/03 09:08:44;;;;;;;6.00;4.30;;;;;;;;;;107950;293;42811;-42
2023/09/03 09:11:21;;;;;;;6.50;4.30;;;;;;;;;;107968;293;43407;-42
2023/09/03 09:14:01;;;;;;;5.80;4.20;;;;;;;;;;108008;293;38671;-42
2023/09/03 09:16:35;;;;;;;6.20;4.20;;;;;;;;;;108019;293;39573;-42
2023/09/03 09:19:11;;;;;;;6.00;4.20;;;;;;;;;;107915;293;43199;-42
2023/09/03 09:21:48;;;;;;;6.50;4.20;;;;;;;;;;107961;293;42218;-42
2023/09/03 09:24:24;;;;;;;5.90;4.10;;;;;;;;;;107987;294;38680;-42
2023/09/03 09:27:17;;;;;;;5.80;3.90;;;;;;;;;;107900;293;175594;-42
2023/09/03 09:29:53;;;;;;;6.70;4.30;;;;;;;;;;108045;293;48567;-42
2023/09/03 09:32:31;;;;;;;5.40;3.80;;;;;;;;;;108106;293;42026;-42
2023/09/03 09:35:08;;;;;;;6.50;4.10;;;;;;;;;;108068;293;38847;-42
2023/09/03 09:37:45;;;;;;;5.80;3.90;;;;;;;;;;108059;293;39651;-42
2023/09/03 09:40:30;;;;;;;5.90;3.90;;;;;;;;;;108062;293;50325;-42
2023/09/03 09:43:07;;;;;;;5.90;4.10;;;;;;;;;;108049;293;175549;-42
2023/09/03 09:45:50;;;;;;;5.40;3.70;;;;;;;;;;108115;293;38532;-42
2023/09/03 09:48:24;;;;;;;5.40;3.80;;;;;;;;;;108074;293;40007;-42
2023/09/03 09:50:57;;;;;;;5.90;3.50;;;;;;;;;;108003;293;44424;-43
2023/09/03 09:53:34;;;;;;;5.60;3.80;;;;;;;;;;108093;293;43452;-42
2023/09/03 09:56:12;;;;;;;5.30;3.40;;;;;;;;;;108105;293;39994;-43
2023/09/03 09:58:45;;;;;;;5.30;3.40;;;;;;;;;;108013;293;39574;-44
2023/09/03 10:01:20;;;;;;;5.60;3.50;;;;;;;;;;108082;293;43031;-43
2023/09/03 10:03:54;;;;;;;5.60;3.70;;;;;;;;;;108076;293;42025;-43
2023/09/03 10:06:30;;;;;;;5.80;3.70;;;;;;;;;;108114;293;38659;-42
2023/09/03 10:09:04;;;;;;;5.50;3.40;;;;;;;;;;108025;293;39643;-40
2023/09/03 10:11:40;;;;;;;5.80;3.60;;;;;;;;;;108140;293;42955;-41
2023/09/03 10:14:15;;;;;;;5.70;3.60;;;;;;;;;;108009;293;175581;-43
2023/09/03 10:16:52;;;;;;;6.40;3.60;;;;;;;;;;108111;293;38851;-42
2023/09/03 10:19:29;;;;;;;5.80;4.00;;;;;;;;;;108099;293;39352;-43
2023/09/03 10:22:16;;;;;;;5.50;3.50;;;;;;;;;;108157;293;44942;-43
2023/09/03 10:24:58;;;;;;;5.80;3.70;;;;;;;;;;108097;293;42250;-42
2023/09/03 10:27:39;;;;;;;6.30;3.70;;;;;;;;;;108121;293;38772;-43
2023/09/03 10:30:18;;;;;;;6.00;3.50;;;;;;;;;;108076;293;40791;-43
2023/09/03 10:32:55;;;;;;;5.60;3.30;;;;;;;;;;108021;293;44023;-42
2023/09/03 10:35:35;;;;;;;5.60;3.40;;;;;;;;;;108132;293;43488;-43
2023/09/03 10:38:33;;;;;;;5.30;3.30;;;;;;;;;;108076;293;38986;-42
2023/09/03 10:41:21;;;;;;;5.40;3.10;;;;;;;;;;108058;293;39758;-43
2023/09/03 10:43:57;;;;;;;4.90;3.00;;;;;;;;;;108066;293;42956;-43
2023/09/03 10:46:30;;;;;;;4.70;2.90;;;;;;;;;;108075;293;42017;-42
2023/09/03 10:49:03;;;;;;;4.60;2.70;;;;;;;;;;107316;293;893741;-43
2023/09/03 10:51:41;;;;;;;4.90;2.80;;;;;;;;;;108010;293;45371;-45
2023/09/03 10:54:24;;;;;;;5.60;3.10;;;;;;;;;;108047;293;42939;-42
2023/09/03 10:57:20;;;;;;;5.60;3.00;;;;;;;;;;108067;293;42103;-44
2023/09/03 11:00:23;;;;;;;5.50;2.80;;;;;;;;;;108050;293;38541;-45
2023/09/03 11:03:27;;;;;;;6.10;2.90;;;;;;;;;;108068;293;40958;-42
2023/09/03 11:06:19;;;;;;;5.20;2.70;;;;;;;;;;107963;293;42881;-42
2023/09/03 11:09:25;;;;;;;5.00;2.50;;;;;;;;;;108052;293;42023;-43
2023/09/03 11:12:07;;;;;;;4.20;2.30;;;;;;;;;;107870;293;175945;-43
2023/09/03 11:14:45;;;;;;;4.20;2.30;;;;;;;;;;108044;293;39750;-43
2023/09/03 11:17:19;;;;;;;4.40;2.40;;;;;;;;;;108080;293;42799;-43
2023/09/03 11:19:52;;;;;;;4.70;2.20;;;;;;;;;;108087;293;42132;-42
2023/09/03 11:22:26;;;;;;;4.20;2.20;;;;;;;;;;108093;293;46000;-43
2023/09/03 11:25:00;;;;;;;4.50;2.50;;;;;;;;;;108032;293;40146;-43
2023/09/03 11:27:33;;;;;;;5.30;2.40;;;;;;;;;;108116;293;42934;-43
2023/09/03 11:30:14;;;;;;;5.00;2.40;;;;;;;;;;108018;293;42213;-42
2023/09/03 11:32:48;;;;;;;4.50;2.20;;;;;;;;;;108019;293;44932;-42
2023/09/03 11:35:21;;;;;;;5.40;2.40;;;;;;;;;;108036;293;40018;-42
2023/09/03 11:37:56;;;;;;;4.60;2.40;;;;;;;;;;108068;293;42792;-42
2023/09/03 11:40:30;;;;;;;3.80;2.10;;;;;;;;;;108020;293;43550;-42
2023/09/03 11:43:10;;;;;;;4.70;2.20;;;;;;;;;;108039;293;46124;-42
2023/09/03 11:45:45;;;;;;;3.80;2.00;;;;;;;;;;108097;293;39584;-42
2023/09/03 11:48:25;;;;;;;4.30;2.30;;;;;;;;;;108068;293;42762;-42
2023/09/03 11:50:59;;;;;;;4.10;2.10;;;;;;;;;;107998;293;41807;-42
2023/09/03 11:53:48;;;;;;;4.40;2.50;;;;;;;;;;108061;293;38807;-42
2023/09/03 11:56:24;;;;;;;3.90;2.10;;;;;;;;;;108055;293;39599;-42
2023/09/03 11:59:04;;;;;;;3.80;2.10;;;;;;;;;;108045;293;43620;-42
2023/09/03 12:01:38;;;;;;;4.10;2.20;;;;;;;;;;108031;293;42158;-42
2023/09/03 12:04:12;;;;;;;4.50;2.10;;;;;;;;;;108090;293;38812;-42
2023/09/03 12:06:46;;;;;;;5.00;2.50;;;;;;;;;;108071;293;39986;-42
2023/09/03 12:09:27;;;;;;;4.40;2.40;;;;;;;;;;108047;293;43179;-42
2023/09/03 12:12:00;;;;;;;4.20;2.20;;;;;;;;;;108028;293;42278;-42
2023/09/03 12:14:34;;;;;;;4.20;2.10;;;;;;;;;;107896;293;175208;-43
2023/09/03 12:17:07;;;;;;;4.80;2.10;;;;;;;;;;108031;293;39663;-42
2023/09/03 12:19:44;;;;;;;4.00;2.40;;;;;;;;;;108047;293;44039;-42
2023/09/03 12:22:19;;;;;;;3.60;2.10;;;;;;;;;;107975;293;42073;-43
2023/09/03 12:24:54;;;;;;;3.80;2.10;;;;;;;;;;108087;293;38841;-43
2023/09/03 12:27:30;;;;;;;4.70;2.10;;;;;;;;;;108025;293;41011;-43
2023/09/03 12:30:05;;;;;;;4.50;2.30;;;;;;;;;;108068;293;42997;-43
2023/09/03 12:32:38;;;;;;;3.90;2.20;;;;;;;;;;107345;293;893615;-43
2023/09/03 12:35:23;;;;;;;3.90;2.10;;;;;;;;;;108010;293;39854;-43
2023/09/03 12:38:03;;;;;;;4.20;2.10;;;;;;;;;;108076;293;40762;-42
2023/09/03 12:40:38;;;;;;;4.20;2.20;;;;;;;;;;108042;293;43010;-42
2023/09/03 12:43:11;;;;;;;3.80;2.10;;;;;;;;;;108023;293;42819;-43
2023/09/03 12:45:44;;;;;;;4.40;2.10;;;;;;;;;;107996;293;38783;-42
2023/09/03 12:48:18;;;;;;;3.80;2.00;;;;;;;;;;108007;293;40037;-43
2023/09/03 12:50:51;;;;;;;4.20;2.00;;;;;;;;;;108024;293;42978;-43
2023/09/03 12:53:24;;;;;;;4.10;2.00;;;;;;;;;;108013;293;42218;-40
2023/09/03 12:55:59;;;;;;;3.80;2.00;;;;;;;;;;108002;293;38674;-42
2023/09/03 12:58:32;;;;;;;3.60;2.00;;;;;;;;;;108022;293;39791;-42
2023/09/03 13:01:07;;;;;;;3.70;2.10;;;;;;;;;;107971;293;43983;-42
2023/09/03 13:03:42;;;;;;;3.70;2.00;;;;;;;;;;108027;293;43425;-42
2023/09/03 13:06:16;;;;;;;4.00;1.90;;;;;;;;;;108053;293;38788;-42
2023/09/03 13:08:51;;;;;;;4.00;1.90;;;;;;;;;;107740;293;329368;-42
2023/09/03 13:11:25;;;;;;;3.60;1.80;;;;;;;;;;107889;293;196055;-43
2023/09/03 13:14:01;;;;;;;3.50;1.90;;;;;;;;;;107941;293;42074;-42
2023/09/03 13:16:36;;;;;;;3.80;2.00;;;;;;;;;;107938;293;38724;-43
2023/09/03 13:19:12;;;;;;;3.50;1.80;;;;;;;;;;107957;293;39642;-43
2023/09/03 13:21:45;;;;;;;3.20;1.60;;;;;;;;;;107935;294;42603;-42
2023/09/03 13:24:20;;;;;;;3.90;1.90;;;;;;;;;;107928;293;42301;-42
2023/09/03 13:26:55;;;;;;;3.40;1.80;;;;;;;;;;107244;293;894254;-42
2023/09/03 13:29:28;;;;;;;3.30;1.70;;;;;;;;;;107989;293;39591;-41
2023/09/03 13:32:06;;;;;;;3.60;1.70;;;;;;;;;;108016;293;42548;-42
2023/09/03 13:34:40;;;;;;;3.70;1.70;;;;;;;;;;108052;293;42033;-42
2023/09/03 13:37:15;;;;;;;4.00;1.80;;;;;;;;;;108142;293;38885;-41
2023/09/03 13:39:49;;;;;;;4.00;1.90;;;;;;;;;;108118;293;39795;-42
2023/09/03 13:42:23;;;;;;;3.30;1.60;;;;;;;;;;108114;293;42505;-42
2023/09/03 13:45:02;;;;;;;3.50;1.70;;;;;;;;;;108078;293;41978;-42
2023/09/03 13:47:35;;;;;;;3.60;1.90;;;;;;;;;;108085;293;38812;-42
2023/09/03 13:50:13;;;;;;;3.80;1.80;;;;;;;;;;108046;293;40884;-42
2023/09/03 13:52:48;;;;;;;3.50;1.70;;;;;;;;;;108042;293;42954;-42
2023/09/03 13:55:25;;;;;;;3.50;1.70;;;;;;;;;;108041;293;42182;-43
2023/09/03 13:57:59;;;;;;;3.90;1.90;;;;;;;;;;107956;293;174982;-43
2023/09/03 14:00:33;;;;;;;3.80;1.80;;;;;;;;;;107930;293;175552;-41
2023/09/03 14:03:10;;;;;;;4.00;1.90;;;;;;;;;;108094;293;43162;-41
2023/09/03 14:05:44;;;;;;;3.50;1.80;;;;;;;;;;108056;293;47689;-41
2023/09/03 14:08:17;;;;;;;3.60;2.00;;;;;;;;;;108017;293;38714;-42
2023/09/03 14:11:02;;;;;;;3.40;1.80;;;;;;;;;;108096;293;39663;-42
2023/09/03 14:13:38;;;;;;;3.50;1.80;;;;;;;;;;108005;293;44037;-42
2023/09/03 14:16:17;;;;;;;3.60;2.00;;;;;;;;;;108082;293;49215;-42
2023/09/03 14:18:53;;;;;;;3.40;1.80;;;;;;;;;;108038;293;38892;-41
2023/09/03 14:21:26;;;;;;;3.10;1.60;;;;;;;;;;108052;293;39699;-42
2023/09/03 14:24:00;;;;;;;3.70;1.90;;;;;;;;;;108006;293;42834;-42
2023/09/03 14:26:33;;;;;;;3.40;1.80;;;;;;;;;;108091;293;42010;-41
2023/09/03 14:29:09;;;;;;;4.30;1.90;;;;;;;;;;108112;293;38477;-43
2023/09/03 14:31:52;;;;;;;3.80;1.80;;;;;;;;;;108099;293;39721;-43
2023/09/03 14:34:29;;;;;;;3.40;1.70;;;;;;;;;;108046;293;44068;-42
2023/09/03 14:37:04;;;;;;;3.80;2.00;;;;;;;;;;108079;293;43253;-43
2023/09/03 14:39:38;;;;;;;3.50;1.70;;;;;;;;;;108073;293;38845;-42
2023/09/03 14:42:11;;;;;;;3.70;1.90;;;;;;;;;;108070;293;39663;-43
2023/09/03 14:44:45;;;;;;;3.10;1.70;;;;;;;;;;108084;293;42835;-43
2023/09/03 14:47:18;;;;;;;3.60;1.60;;;;;;;;;;108095;293;42924;-43
2023/09/03 14:49:54;;;;;;;3.70;1.70;;;;;;;;;;108041;293;38495;-43
2023/09/03 14:52:27;;;;;;;3.60;1.70;;;;;;;;;;108014;293;40812;-43
2023/09/03 14:55:01;;;;;;;3.40;1.60;;;;;;;;;;108035;293;43004;-43
2023/09/03 14:57:34;;;;;;;3.40;1.70;;;;;;;;;;108034;293;42088;-41
2023/09/03 15:00:12;;;;;;;3.50;1.60;;;;;;;;;;108080;293;38765;-43
2023/09/03 15:02:45;;;;;;;3.50;1.80;;;;;;;;;;108003;293;39619;-43
2023/09/03 15:05:20;;;;;;;3.20;1.70;;;;;;;;;;108091;293;42765;-42
2023/09/03 15:07:58;;;;;;;3.60;1.80;;;;;;;;;;108022;293;41784;-42
2023/09/03 15:10:33;;;;;;;3.10;1.60;;;;;;;;;;108072;293;38764;-42
2023/09/03 15:13:08;;;;;;;3.60;1.80;;;;;;;;;;108098;293;40643;-42
2023/09/03 15:15:46;;;;;;;3.50;1.80;;;;;;;;;;108027;293;44065;-42
2023/09/03 15:18:19;;;;;;;3.50;1.50;;;;;;;;;;108055;293;42285;-43
2023/09/03 15:20:56;;;;;;;3.70;1.60;;;;;;;;;;107352;293;893885;-42
2023/09/03 15:23:31;;;;;;;3.90;1.70;;;;;;;;;;108031;293;39674;-42
2023/09/03 15:26:06;;;;;;;3.50;1.80;;;;;;;;;;108060;293;42536;-42
2023/09/03 15:28:39;;;;;;;3.70;1.80;;;;;;;;;;108145;293;42106;-42
2023/09/03 15:31:15;;;;;;;3.40;1.80;;;;;;;;;;108070;293;39103;-42
2023/09/03 15:33:48;;;;;;;3.70;1.90;;;;;;;;;;108155;293;39703;-42
2023/09/03 15:36:22;;;;;;;3.40;1.60;;;;;;;;;;108070;293;43014;-42